sensor_id;sensor_type;location;lat;lon;timestamp;P1;durP1;ratioP1;P2;durP2;ratioP2
55728;SDS011;41633;39.720;2.910;2022-08-19T00:02:22;8.93;;;1.77;;
55728;SDS011;41633;39.720;2.910;2022-08-19T00:04:48;11.20;;;2.30;;
55728;SDS011;41633;39.720;2.910;2022-08-19T00:07:17;10.65;;;2.25;;
55728;SDS011;41633;39.720;2.910;2022-08-19T00:09:44;12.45;;;2.40;;
55728;SDS011;41633;39.720;2.910;2022-08-19T00:12:10;10.85;;;2.85;;
55728;SDS011;41633;39.720;2.910;2022-08-19T00:14:36;9.88;;;2.03;;
55728;SDS011;41633;39.720;2.910;2022-08-19T00:17:04;12.05;;;1.98;;
55728;SDS011;41633;39.720;2.910;2022-08-19T00:19:31;8.43;;;1.77;;
55728;SDS011;41633;39.720;2.910;2022-08-19T00:21:58;9.98;;;1.83;;
55728;SDS011;41633;39.720;2.910;2022-08-19T00:24:24;8.32;;;1.80;;
55728;SDS011;41633;39.720;2.910;2022-08-19T00:26:50;10.23;;;2.25;;
55728;SDS011;41633;39.720;2.910;2022-08-19T00:29:18;10.30;;;1.90;;
55728;SDS011;41633;39.720;2.910;2022-08-19T00:31:44;12.73;;;1.73;;
55728;SDS011;41633;39.720;2.910;2022-08-19T00:34:11;13.10;;;2.20;;
55728;SDS011;41633;39.720;2.910;2022-08-19T00:36:37;10.40;;;2.20;;
55728;SDS011;41633;39.720;2.910;2022-08-19T00:39:04;10.30;;;1.90;;
55728;SDS011;41633;39.720;2.910;2022-08-19T00:41:30;12.25;;;2.03;;
55728;SDS011;41633;39.720;2.910;2022-08-19T00:44:07;12.10;;;1.98;;
55728;SDS011;41633;39.720;2.910;2022-08-19T00:46:34;14.13;;;1.75;;
55728;SDS011;41633;39.720;2.910;2022-08-19T00:49:02;13.02;;;1.92;;
55728;SDS011;41633;39.720;2.910;2022-08-19T00:51:32;9.75;;;1.85;;
55728;SDS011;41633;39.720;2.910;2022-08-19T00:53:58;10.55;;;1.88;;
55728;SDS011;41633;39.720;2.910;2022-08-19T00:56:25;9.43;;;2.00;;
55728;SDS011;41633;39.720;2.910;2022-08-19T00:58:52;9.75;;;1.80;;
55728;SDS011;41633;39.720;2.910;2022-08-19T01:01:19;9.27;;;1.48;;
55728;SDS011;41633;39.720;2.910;2022-08-19T01:06:11;7.15;;;1.55;;
55728;SDS011;41633;39.720;2.910;2022-08-19T01:08:37;5.20;;;0.80;;
55728;SDS011;41633;39.720;2.910;2022-08-19T01:11:03;2.97;;;0.70;;
55728;SDS011;41633;39.720;2.910;2022-08-19T01:13:30;3.25;;;0.80;;
55728;SDS011;41633;39.720;2.910;2022-08-19T01:16:03;6.50;;;1.10;;
55728;SDS011;41633;39.720;2.910;2022-08-19T01:18:30;9.05;;;1.50;;
55728;SDS011;41633;39.720;2.910;2022-08-19T01:20:58;7.22;;;1.30;;
55728;SDS011;41633;39.720;2.910;2022-08-19T01:23:26;6.20;;;1.40;;
55728;SDS011;41633;39.720;2.910;2022-08-19T01:26:18;7.60;;;1.60;;
55728;SDS011;41633;39.720;2.910;2022-08-19T01:28:45;6.05;;;1.30;;
55728;SDS011;41633;39.720;2.910;2022-08-19T01:31:13;7.70;;;1.30;;
55728;SDS011;41633;39.720;2.910;2022-08-19T01:33:40;6.20;;;1.38;;
55728;SDS011;41633;39.720;2.910;2022-08-19T01:36:11;8.63;;;1.50;;
55728;SDS011;41633;39.720;2.910;2022-08-19T01:38:38;7.28;;;1.50;;
55728;SDS011;41633;39.720;2.910;2022-08-19T01:41:05;9.02;;;1.50;;
55728;SDS011;41633;39.720;2.910;2022-08-19T01:45:57;6.38;;;1.30;;
55728;SDS011;41633;39.720;2.910;2022-08-19T01:48:23;7.72;;;1.30;;
55728;SDS011;41633;39.720;2.910;2022-08-19T01:50:49;6.78;;;1.48;;
55728;SDS011;41633;39.720;2.910;2022-08-19T01:55:42;10.20;;;1.52;;
55728;SDS011;41633;39.720;2.910;2022-08-19T01:58:11;6.57;;;1.20;;
55728;SDS011;41633;39.720;2.910;2022-08-19T02:00:38;4.80;;;1.15;;
55728;SDS011;41633;39.720;2.910;2022-08-19T02:03:04;7.75;;;1.52;;
55728;SDS011;41633;39.720;2.910;2022-08-19T02:05:31;8.00;;;1.40;;
55728;SDS011;41633;39.720;2.910;2022-08-19T02:10:24;6.97;;;1.50;;
55728;SDS011;41633;39.720;2.910;2022-08-19T02:12:50;5.88;;;1.23;;
55728;SDS011;41633;39.720;2.910;2022-08-19T02:15:17;8.50;;;1.50;;
55728;SDS011;41633;39.720;2.910;2022-08-19T02:17:47;7.13;;;1.35;;
55728;SDS011;41633;39.720;2.910;2022-08-19T02:20:13;9.65;;;1.50;;
55728;SDS011;41633;39.720;2.910;2022-08-19T02:22:40;6.80;;;1.45;;
55728;SDS011;41633;39.720;2.910;2022-08-19T02:25:08;6.82;;;1.60;;
55728;SDS011;41633;39.720;2.910;2022-08-19T02:27:34;9.95;;;1.67;;
55728;SDS011;41633;39.720;2.910;2022-08-19T02:32:26;8.07;;;1.40;;
55728;SDS011;41633;39.720;2.910;2022-08-19T02:34:55;12.25;;;1.52;;
55728;SDS011;41633;39.720;2.910;2022-08-19T02:40:06;8.88;;;1.55;;
55728;SDS011;41633;39.720;2.910;2022-08-19T02:42:32;6.35;;;1.40;;
55728;SDS011;41633;39.720;2.910;2022-08-19T02:44:58;8.70;;;1.73;;
55728;SDS011;41633;39.720;2.910;2022-08-19T02:47:25;9.57;;;1.60;;
55728;SDS011;41633;39.720;2.910;2022-08-19T02:52:17;8.50;;;1.60;;
55728;SDS011;41633;39.720;2.910;2022-08-19T02:57:09;7.70;;;1.50;;
55728;SDS011;41633;39.720;2.910;2022-08-19T02:59:35;7.03;;;1.67;;
55728;SDS011;41633;39.720;2.910;2022-08-19T03:04:27;8.13;;;1.48;;
55728;SDS011;41633;39.720;2.910;2022-08-19T03:06:54;9.38;;;1.52;;
55728;SDS011;41633;39.720;2.910;2022-08-19T03:09:21;8.18;;;1.60;;
55728;SDS011;41633;39.720;2.910;2022-08-19T03:11:47;7.70;;;1.75;;
55728;SDS011;41633;39.720;2.910;2022-08-19T03:16:41;10.23;;;1.95;;
55728;SDS011;41633;39.720;2.910;2022-08-19T03:19:07;7.97;;;1.70;;
55728;SDS011;41633;39.720;2.910;2022-08-19T03:21:34;10.20;;;1.80;;
55728;SDS011;41633;39.720;2.910;2022-08-19T03:26:26;11.18;;;1.85;;
55728;SDS011;41633;39.720;2.910;2022-08-19T03:28:52;6.78;;;1.50;;
55728;SDS011;41633;39.720;2.910;2022-08-19T03:33:44;7.63;;;1.73;;
55728;SDS011;41633;39.720;2.910;2022-08-19T03:36:21;8.80;;;1.80;;
55728;SDS011;41633;39.720;2.910;2022-08-19T03:38:52;10.13;;;1.67;;
55728;SDS011;41633;39.720;2.910;2022-08-19T03:41:24;11.27;;;4.18;;
55728;SDS011;41633;39.720;2.910;2022-08-19T03:43:51;13.07;;;5.65;;
55728;SDS011;41633;39.720;2.910;2022-08-19T03:46:19;13.18;;;4.93;;
55728;SDS011;41633;39.720;2.910;2022-08-19T03:48:45;11.40;;;3.63;;
55728;SDS011;41633;39.720;2.910;2022-08-19T03:51:20;12.93;;;3.17;;
55728;SDS011;41633;39.720;2.910;2022-08-19T03:53:46;10.80;;;2.60;;
55728;SDS011;41633;39.720;2.910;2022-08-19T03:56:14;7.65;;;2.22;;
55728;SDS011;41633;39.720;2.910;2022-08-19T03:58:41;9.55;;;1.90;;
55728;SDS011;41633;39.720;2.910;2022-08-19T04:03:33;10.15;;;2.13;;
55728;SDS011;41633;39.720;2.910;2022-08-19T04:06:10;7.43;;;1.83;;
55728;SDS011;41633;39.720;2.910;2022-08-19T04:11:06;9.32;;;1.90;;
55728;SDS011;41633;39.720;2.910;2022-08-19T04:13:33;10.43;;;2.00;;
55728;SDS011;41633;39.720;2.910;2022-08-19T04:15:59;10.00;;;1.75;;
55728;SDS011;41633;39.720;2.910;2022-08-19T04:18:25;12.35;;;2.10;;
55728;SDS011;41633;39.720;2.910;2022-08-19T04:20:54;9.02;;;1.85;;
55728;SDS011;41633;39.720;2.910;2022-08-19T04:23:22;10.23;;;1.77;;
55728;SDS011;41633;39.720;2.910;2022-08-19T04:25:48;8.50;;;1.77;;
55728;SDS011;41633;39.720;2.910;2022-08-19T04:30:44;10.73;;;2.47;;
55728;SDS011;41633;39.720;2.910;2022-08-19T04:33:11;9.82;;;2.60;;
55728;SDS011;41633;39.720;2.910;2022-08-19T04:35:42;9.02;;;2.30;;
55728;SDS011;41633;39.720;2.910;2022-08-19T04:38:09;8.20;;;1.90;;
55728;SDS011;41633;39.720;2.910;2022-08-19T04:40:39;7.78;;;1.98;;
55728;SDS011;41633;39.720;2.910;2022-08-19T04:43:24;11.38;;;1.75;;
55728;SDS011;41633;39.720;2.910;2022-08-19T04:48:16;8.50;;;1.92;;
55728;SDS011;41633;39.720;2.910;2022-08-19T04:50:47;8.88;;;1.92;;
55728;SDS011;41633;39.720;2.910;2022-08-19T04:53:13;9.05;;;1.77;;
55728;SDS011;41633;39.720;2.910;2022-08-19T04:55:41;11.40;;;1.80;;
55728;SDS011;41633;39.720;2.910;2022-08-19T04:58:07;5.95;;;1.73;;
55728;SDS011;41633;39.720;2.910;2022-08-19T05:02:59;8.20;;;1.60;;
55728;SDS011;41633;39.720;2.910;2022-08-19T05:05:25;8.82;;;1.75;;
55728;SDS011;41633;39.720;2.910;2022-08-19T05:10:17;5.68;;;1.45;;
55728;SDS011;41633;39.720;2.910;2022-08-19T05:12:44;6.93;;;1.30;;
55728;SDS011;41633;39.720;2.910;2022-08-19T05:17:36;7.00;;;1.42;;
55728;SDS011;41633;39.720;2.910;2022-08-19T05:22:47;6.80;;;1.60;;
55728;SDS011;41633;39.720;2.910;2022-08-19T05:27:40;9.00;;;1.77;;
55728;SDS011;41633;39.720;2.910;2022-08-19T05:30:06;8.40;;;1.83;;
55728;SDS011;41633;39.720;2.910;2022-08-19T05:32:32;6.95;;;1.70;;
55728;SDS011;41633;39.720;2.910;2022-08-19T05:34:59;4.80;;;1.35;;
55728;SDS011;41633;39.720;2.910;2022-08-19T05:37:25;10.93;;;1.58;;
55728;SDS011;41633;39.720;2.910;2022-08-19T05:39:52;8.63;;;1.63;;
55728;SDS011;41633;39.720;2.910;2022-08-19T05:42:19;5.18;;;1.48;;
55728;SDS011;41633;39.720;2.910;2022-08-19T05:44:47;8.20;;;1.60;;
55728;SDS011;41633;39.720;2.910;2022-08-19T05:47:14;6.70;;;1.40;;
55728;SDS011;41633;39.720;2.910;2022-08-19T05:49:41;6.70;;;1.55;;
55728;SDS011;41633;39.720;2.910;2022-08-19T05:52:09;7.75;;;1.60;;
55728;SDS011;41633;39.720;2.910;2022-08-19T05:54:37;7.32;;;1.48;;
55728;SDS011;41633;39.720;2.910;2022-08-19T05:57:05;8.68;;;1.40;;
55728;SDS011;41633;39.720;2.910;2022-08-19T05:59:31;8.48;;;1.35;;
55728;SDS011;41633;39.720;2.910;2022-08-19T06:01:59;4.78;;;1.30;;
55728;SDS011;41633;39.720;2.910;2022-08-19T06:04:25;4.40;;;1.25;;
55728;SDS011;41633;39.720;2.910;2022-08-19T06:09:18;8.63;;;1.33;;
55728;SDS011;41633;39.720;2.910;2022-08-19T06:11:48;6.75;;;1.40;;
55728;SDS011;41633;39.720;2.910;2022-08-19T06:14:18;8.77;;;1.60;;
55728;SDS011;41633;39.720;2.910;2022-08-19T06:16:46;8.55;;;1.58;;
55728;SDS011;41633;39.720;2.910;2022-08-19T06:19:15;5.88;;;1.40;;
55728;SDS011;41633;39.720;2.910;2022-08-19T06:21:43;9.13;;;1.60;;
55728;SDS011;41633;39.720;2.910;2022-08-19T06:24:10;5.78;;;1.42;;
55728;SDS011;41633;39.720;2.910;2022-08-19T06:26:37;8.10;;;1.42;;
55728;SDS011;41633;39.720;2.910;2022-08-19T06:29:04;7.63;;;1.50;;
55728;SDS011;41633;39.720;2.910;2022-08-19T06:31:32;10.60;;;1.80;;
55728;SDS011;41633;39.720;2.910;2022-08-19T06:33:59;10.57;;;1.80;;
55728;SDS011;41633;39.720;2.910;2022-08-19T06:36:28;8.95;;;1.48;;
55728;SDS011;41633;39.720;2.910;2022-08-19T06:38:57;7.55;;;1.52;;
55728;SDS011;41633;39.720;2.910;2022-08-19T06:41:24;11.20;;;1.67;;
55728;SDS011;41633;39.720;2.910;2022-08-19T06:43:50;11.23;;;1.38;;
55728;SDS011;41633;39.720;2.910;2022-08-19T06:46:17;4.72;;;1.27;;
55728;SDS011;41633;39.720;2.910;2022-08-19T06:48:44;6.22;;;1.35;;
55728;SDS011;41633;39.720;2.910;2022-08-19T06:51:11;7.97;;;1.60;;
55728;SDS011;41633;39.720;2.910;2022-08-19T06:53:37;10.40;;;1.70;;
55728;SDS011;41633;39.720;2.910;2022-08-19T06:56:04;8.57;;;1.58;;
55728;SDS011;41633;39.720;2.910;2022-08-19T06:58:30;9.85;;;1.40;;
55728;SDS011;41633;39.720;2.910;2022-08-19T07:01:03;11.23;;;1.80;;
55728;SDS011;41633;39.720;2.910;2022-08-19T07:03:31;7.25;;;1.45;;
55728;SDS011;41633;39.720;2.910;2022-08-19T07:06:02;7.68;;;1.58;;
55728;SDS011;41633;39.720;2.910;2022-08-19T07:08:28;7.68;;;1.40;;
55728;SDS011;41633;39.720;2.910;2022-08-19T07:10:54;8.57;;;1.70;;
55728;SDS011;41633;39.720;2.910;2022-08-19T07:13:20;6.57;;;1.52;;
55728;SDS011;41633;39.720;2.910;2022-08-19T07:15:47;7.03;;;1.50;;
55728;SDS011;41633;39.720;2.910;2022-08-19T07:18:14;7.22;;;1.50;;
55728;SDS011;41633;39.720;2.910;2022-08-19T07:20:41;7.93;;;1.50;;
55728;SDS011;41633;39.720;2.910;2022-08-19T07:23:08;8.82;;;1.83;;
55728;SDS011;41633;39.720;2.910;2022-08-19T07:25:35;10.10;;;1.95;;
55728;SDS011;41633;39.720;2.910;2022-08-19T07:28:02;8.38;;;1.70;;
55728;SDS011;41633;39.720;2.910;2022-08-19T07:30:28;8.18;;;1.83;;
55728;SDS011;41633;39.720;2.910;2022-08-19T07:32:54;18.25;;;2.28;;
55728;SDS011;41633;39.720;2.910;2022-08-19T07:35:21;9.70;;;2.45;;
55728;SDS011;41633;39.720;2.910;2022-08-19T07:37:48;9.90;;;2.30;;
55728;SDS011;41633;39.720;2.910;2022-08-19T07:40:15;10.15;;;2.83;;
55728;SDS011;41633;39.720;2.910;2022-08-19T07:42:42;11.50;;;3.00;;
55728;SDS011;41633;39.720;2.910;2022-08-19T07:45:09;8.52;;;2.35;;
55728;SDS011;41633;39.720;2.910;2022-08-19T07:47:35;11.32;;;2.40;;
55728;SDS011;41633;39.720;2.910;2022-08-19T07:50:03;9.50;;;2.17;;
55728;SDS011;41633;39.720;2.910;2022-08-19T07:52:29;7.85;;;1.60;;
55728;SDS011;41633;39.720;2.910;2022-08-19T07:54:56;10.20;;;1.65;;
55728;SDS011;41633;39.720;2.910;2022-08-19T07:57:22;7.50;;;1.40;;
55728;SDS011;41633;39.720;2.910;2022-08-19T07:59:48;7.50;;;1.52;;
55728;SDS011;41633;39.720;2.910;2022-08-19T08:02:14;9.05;;;1.50;;
55728;SDS011;41633;39.720;2.910;2022-08-19T08:04:40;8.27;;;1.67;;
55728;SDS011;41633;39.720;2.910;2022-08-19T08:07:25;7.93;;;1.65;;
55728;SDS011;41633;39.720;2.910;2022-08-19T08:10:10;10.05;;;2.25;;
55728;SDS011;41633;39.720;2.910;2022-08-19T08:12:38;6.65;;;1.35;;
55728;SDS011;41633;39.720;2.910;2022-08-19T08:15:10;6.93;;;1.60;;
55728;SDS011;41633;39.720;2.910;2022-08-19T08:17:37;9.20;;;1.50;;
55728;SDS011;41633;39.720;2.910;2022-08-19T08:20:05;5.35;;;1.38;;
55728;SDS011;41633;39.720;2.910;2022-08-19T08:22:31;8.13;;;1.20;;
55728;SDS011;41633;39.720;2.910;2022-08-19T08:25:18;10.43;;;1.30;;
55728;SDS011;41633;39.720;2.910;2022-08-19T08:27:44;8.85;;;1.50;;
55728;SDS011;41633;39.720;2.910;2022-08-19T08:30:13;8.68;;;1.90;;
55728;SDS011;41633;39.720;2.910;2022-08-19T08:32:40;7.65;;;1.50;;
55728;SDS011;41633;39.720;2.910;2022-08-19T08:35:07;6.05;;;1.25;;
55728;SDS011;41633;39.720;2.910;2022-08-19T08:37:34;6.82;;;1.45;;
55728;SDS011;41633;39.720;2.910;2022-08-19T08:40:05;5.82;;;1.17;;
55728;SDS011;41633;39.720;2.910;2022-08-19T08:42:34;7.07;;;1.30;;
55728;SDS011;41633;39.720;2.910;2022-08-19T08:45:06;7.88;;;1.38;;
55728;SDS011;41633;39.720;2.910;2022-08-19T08:47:41;6.82;;;1.27;;
55728;SDS011;41633;39.720;2.910;2022-08-19T08:52:45;9.10;;;1.42;;
55728;SDS011;41633;39.720;2.910;2022-08-19T08:55:17;7.65;;;1.40;;
55728;SDS011;41633;39.720;2.910;2022-08-19T09:02:46;7.47;;;1.90;;
55728;SDS011;41633;39.720;2.910;2022-08-19T09:05:12;8.10;;;1.20;;
55728;SDS011;41633;39.720;2.910;2022-08-19T09:12:57;4.93;;;1.10;;
55728;SDS011;41633;39.720;2.910;2022-08-19T09:15:28;6.47;;;1.10;;
55728;SDS011;41633;39.720;2.910;2022-08-19T09:17:59;5.43;;;1.00;;
55728;SDS011;41633;39.720;2.910;2022-08-19T09:20:26;4.25;;;0.90;;
55728;SDS011;41633;39.720;2.910;2022-08-19T09:22:52;7.55;;;0.80;;
55728;SDS011;41633;39.720;2.910;2022-08-19T09:25:20;6.47;;;1.00;;
55728;SDS011;41633;39.720;2.910;2022-08-19T09:27:47;5.07;;;1.10;;
55728;SDS011;41633;39.720;2.910;2022-08-19T09:30:15;6.57;;;0.98;;
55728;SDS011;41633;39.720;2.910;2022-08-19T09:32:42;4.60;;;0.95;;
55728;SDS011;41633;39.720;2.910;2022-08-19T09:35:08;8.82;;;1.10;;
55728;SDS011;41633;39.720;2.910;2022-08-19T09:37:34;8.27;;;1.23;;
55728;SDS011;41633;39.720;2.910;2022-08-19T09:40:02;6.10;;;1.10;;
55728;SDS011;41633;39.720;2.910;2022-08-19T09:42:28;4.72;;;0.90;;
55728;SDS011;41633;39.720;2.910;2022-08-19T09:44:54;5.97;;;1.25;;
55728;SDS011;41633;39.720;2.910;2022-08-19T09:47:20;5.07;;;1.05;;
55728;SDS011;41633;39.720;2.910;2022-08-19T09:49:46;5.00;;;1.05;;
55728;SDS011;41633;39.720;2.910;2022-08-19T09:52:13;4.68;;;1.13;;
55728;SDS011;41633;39.720;2.910;2022-08-19T09:54:41;5.25;;;1.10;;
55728;SDS011;41633;39.720;2.910;2022-08-19T09:57:07;7.85;;;1.05;;
55728;SDS011;41633;39.720;2.910;2022-08-19T09:59:33;3.55;;;1.00;;
55728;SDS011;41633;39.720;2.910;2022-08-19T10:01:59;3.53;;;0.90;;
55728;SDS011;41633;39.720;2.910;2022-08-19T10:04:26;10.32;;;1.13;;
55728;SDS011;41633;39.720;2.910;2022-08-19T10:07:12;6.00;;;0.85;;
55728;SDS011;41633;39.720;2.910;2022-08-19T10:09:38;4.78;;;1.23;;
55728;SDS011;41633;39.720;2.910;2022-08-19T10:12:06;6.28;;;1.20;;
55728;SDS011;41633;39.720;2.910;2022-08-19T10:14:32;7.35;;;1.27;;
55728;SDS011;41633;39.720;2.910;2022-08-19T10:16:58;6.50;;;1.20;;
55728;SDS011;41633;39.720;2.910;2022-08-19T10:19:26;4.97;;;1.00;;
55728;SDS011;41633;39.720;2.910;2022-08-19T10:21:55;6.28;;;1.23;;
55728;SDS011;41633;39.720;2.910;2022-08-19T10:24:21;4.53;;;1.15;;
55728;SDS011;41633;39.720;2.910;2022-08-19T10:26:49;5.18;;;1.10;;
55728;SDS011;41633;39.720;2.910;2022-08-19T10:29:15;4.97;;;1.00;;
55728;SDS011;41633;39.720;2.910;2022-08-19T10:31:41;5.70;;;1.20;;
55728;SDS011;41633;39.720;2.910;2022-08-19T10:34:08;5.78;;;0.95;;
55728;SDS011;41633;39.720;2.910;2022-08-19T10:36:35;5.00;;;0.90;;
55728;SDS011;41633;39.720;2.910;2022-08-19T10:39:10;9.32;;;1.13;;
55728;SDS011;41633;39.720;2.910;2022-08-19T10:41:38;4.70;;;0.82;;
55728;SDS011;41633;39.720;2.910;2022-08-19T10:44:08;7.00;;;1.00;;
55728;SDS011;41633;39.720;2.910;2022-08-19T10:46:39;7.88;;;1.10;;
55728;SDS011;41633;39.720;2.910;2022-08-19T10:49:07;6.28;;;1.05;;
55728;SDS011;41633;39.720;2.910;2022-08-19T10:51:33;4.35;;;0.90;;
55728;SDS011;41633;39.720;2.910;2022-08-19T10:54:19;6.93;;;1.13;;
55728;SDS011;41633;39.720;2.910;2022-08-19T10:56:45;6.53;;;0.95;;
55728;SDS011;41633;39.720;2.910;2022-08-19T10:59:18;5.57;;;1.05;;
55728;SDS011;41633;39.720;2.910;2022-08-19T11:01:45;5.25;;;1.00;;
55728;SDS011;41633;39.720;2.910;2022-08-19T11:04:12;5.38;;;0.93;;
55728;SDS011;41633;39.720;2.910;2022-08-19T11:06:39;4.72;;;0.80;;
55728;SDS011;41633;39.720;2.910;2022-08-19T11:09:06;3.95;;;0.90;;
55728;SDS011;41633;39.720;2.910;2022-08-19T11:11:33;3.67;;;0.80;;
55728;SDS011;41633;39.720;2.910;2022-08-19T11:14:05;2.90;;;0.77;;
55728;SDS011;41633;39.720;2.910;2022-08-19T11:16:31;3.95;;;0.80;;
55728;SDS011;41633;39.720;2.910;2022-08-19T11:18:58;6.43;;;0.93;;
55728;SDS011;41633;39.720;2.910;2022-08-19T11:21:26;5.05;;;1.02;;
55728;SDS011;41633;39.720;2.910;2022-08-19T11:23:53;3.90;;;0.82;;
55728;SDS011;41633;39.720;2.910;2022-08-19T11:26:20;7.13;;;1.10;;
55728;SDS011;41633;39.720;2.910;2022-08-19T11:28:47;5.50;;;0.80;;
55728;SDS011;41633;39.720;2.910;2022-08-19T11:31:17;5.28;;;1.10;;
55728;SDS011;41633;39.720;2.910;2022-08-19T11:33:44;4.10;;;0.90;;
55728;SDS011;41633;39.720;2.910;2022-08-19T11:36:11;4.00;;;0.80;;
55728;SDS011;41633;39.720;2.910;2022-08-19T11:38:37;3.55;;;0.90;;
55728;SDS011;41633;39.720;2.910;2022-08-19T11:41:04;6.05;;;1.00;;
55728;SDS011;41633;39.720;2.910;2022-08-19T11:43:32;4.65;;;0.90;;
55728;SDS011;41633;39.720;2.910;2022-08-19T11:45:58;5.78;;;0.95;;
55728;SDS011;41633;39.720;2.910;2022-08-19T11:48:25;4.97;;;1.20;;
55728;SDS011;41633;39.720;2.910;2022-08-19T11:50:52;7.03;;;1.48;;
55728;SDS011;41633;39.720;2.910;2022-08-19T11:53:22;4.10;;;1.20;;
55728;SDS011;41633;39.720;2.910;2022-08-19T11:55:49;4.47;;;0.80;;
55728;SDS011;41633;39.720;2.910;2022-08-19T11:58:16;4.88;;;1.40;;
55728;SDS011;41633;39.720;2.910;2022-08-19T12:00:42;8.77;;;3.60;;
55728;SDS011;41633;39.720;2.910;2022-08-19T12:03:10;5.93;;;1.50;;
55728;SDS011;41633;39.720;2.910;2022-08-19T12:05:37;5.47;;;1.15;;
55728;SDS011;41633;39.720;2.910;2022-08-19T12:08:03;5.05;;;1.10;;
55728;SDS011;41633;39.720;2.910;2022-08-19T12:10:29;7.18;;;1.98;;
55728;SDS011;41633;39.720;2.910;2022-08-19T12:12:56;6.22;;;1.38;;
55728;SDS011;41633;39.720;2.910;2022-08-19T12:15:22;3.70;;;0.98;;
55728;SDS011;41633;39.720;2.910;2022-08-19T12:17:48;4.30;;;0.65;;
55728;SDS011;41633;39.720;2.910;2022-08-19T12:20:14;4.53;;;0.88;;
55728;SDS011;41633;39.720;2.910;2022-08-19T12:22:42;4.25;;;0.85;;
55728;SDS011;41633;39.720;2.910;2022-08-19T12:25:09;4.28;;;0.90;;
55728;SDS011;41633;39.720;2.910;2022-08-19T12:27:36;4.57;;;0.90;;
55728;SDS011;41633;39.720;2.910;2022-08-19T12:30:02;6.10;;;0.80;;
55728;SDS011;41633;39.720;2.910;2022-08-19T12:32:29;3.67;;;0.70;;
55728;SDS011;41633;39.720;2.910;2022-08-19T12:34:55;8.57;;;1.10;;
55728;SDS011;41633;39.720;2.910;2022-08-19T12:37:21;8.30;;;1.15;;
55728;SDS011;41633;39.720;2.910;2022-08-19T12:39:47;6.80;;;1.25;;
55728;SDS011;41633;39.720;2.910;2022-08-19T12:42:14;5.70;;;1.40;;
55728;SDS011;41633;39.720;2.910;2022-08-19T12:44:41;5.10;;;1.10;;
55728;SDS011;41633;39.720;2.910;2022-08-19T12:47:08;4.65;;;0.93;;
55728;SDS011;41633;39.720;2.910;2022-08-19T12:49:35;6.00;;;0.90;;
55728;SDS011;41633;39.720;2.910;2022-08-19T12:52:05;4.88;;;0.88;;
55728;SDS011;41633;39.720;2.910;2022-08-19T12:54:32;5.00;;;0.82;;
55728;SDS011;41633;39.720;2.910;2022-08-19T12:56:58;2.83;;;0.60;;
55728;SDS011;41633;39.720;2.910;2022-08-19T12:59:25;6.22;;;0.77;;
55728;SDS011;41633;39.720;2.910;2022-08-19T13:01:51;3.75;;;0.70;;
55728;SDS011;41633;39.720;2.910;2022-08-19T13:04:17;5.75;;;0.90;;
55728;SDS011;41633;39.720;2.910;2022-08-19T13:06:43;7.57;;;0.82;;
55728;SDS011;41633;39.720;2.910;2022-08-19T13:09:10;2.95;;;0.45;;
55728;SDS011;41633;39.720;2.910;2022-08-19T13:11:36;3.50;;;0.70;;
55728;SDS011;41633;39.720;2.910;2022-08-19T13:14:03;4.43;;;0.60;;
55728;SDS011;41633;39.720;2.910;2022-08-19T13:16:29;6.50;;;0.77;;
55728;SDS011;41633;39.720;2.910;2022-08-19T13:18:56;4.13;;;0.50;;
55728;SDS011;41633;39.720;2.910;2022-08-19T13:21:25;4.72;;;0.70;;
55728;SDS011;41633;39.720;2.910;2022-08-19T13:23:52;4.90;;;0.85;;
55728;SDS011;41633;39.720;2.910;2022-08-19T13:26:19;2.78;;;0.60;;
55728;SDS011;41633;39.720;2.910;2022-08-19T13:28:45;5.03;;;0.90;;
55728;SDS011;41633;39.720;2.910;2022-08-19T13:31:31;5.00;;;0.82;;
55728;SDS011;41633;39.720;2.910;2022-08-19T13:34:17;3.20;;;0.70;;
55728;SDS011;41633;39.720;2.910;2022-08-19T13:36:44;2.47;;;0.45;;
55728;SDS011;41633;39.720;2.910;2022-08-19T13:39:11;3.13;;;0.70;;
55728;SDS011;41633;39.720;2.910;2022-08-19T13:41:42;4.47;;;0.65;;
55728;SDS011;41633;39.720;2.910;2022-08-19T13:44:10;2.85;;;0.57;;
55728;SDS011;41633;39.720;2.910;2022-08-19T13:46:36;4.15;;;0.60;;
55728;SDS011;41633;39.720;2.910;2022-08-19T13:49:02;5.10;;;1.13;;
55728;SDS011;41633;39.720;2.910;2022-08-19T13:51:29;4.07;;;0.70;;
55728;SDS011;41633;39.720;2.910;2022-08-19T13:53:55;5.40;;;0.93;;
55728;SDS011;41633;39.720;2.910;2022-08-19T13:56:21;4.72;;;0.63;;
55728;SDS011;41633;39.720;2.910;2022-08-19T13:58:47;5.30;;;0.80;;
55728;SDS011;41633;39.720;2.910;2022-08-19T14:01:18;4.78;;;0.80;;
55728;SDS011;41633;39.720;2.910;2022-08-19T14:03:44;5.60;;;0.73;;
55728;SDS011;41633;39.720;2.910;2022-08-19T14:06:10;4.32;;;0.70;;
55728;SDS011;41633;39.720;2.910;2022-08-19T14:08:36;6.05;;;0.80;;
55728;SDS011;41633;39.720;2.910;2022-08-19T14:11:04;2.97;;;0.60;;
55728;SDS011;41633;39.720;2.910;2022-08-19T14:13:30;5.38;;;0.70;;
55728;SDS011;41633;39.720;2.910;2022-08-19T14:15:58;3.33;;;0.85;;
55728;SDS011;41633;39.720;2.910;2022-08-19T14:18:24;3.58;;;0.80;;
55728;SDS011;41633;39.720;2.910;2022-08-19T14:20:51;3.67;;;1.15;;
55728;SDS011;41633;39.720;2.910;2022-08-19T14:23:17;8.10;;;1.50;;
55728;SDS011;41633;39.720;2.910;2022-08-19T14:25:44;7.55;;;1.80;;
55728;SDS011;41633;39.720;2.910;2022-08-19T14:28:11;4.78;;;1.30;;
55728;SDS011;41633;39.720;2.910;2022-08-19T14:30:37;7.35;;;1.70;;
55728;SDS011;41633;39.720;2.910;2022-08-19T14:33:04;5.53;;;1.80;;
55728;SDS011;41633;39.720;2.910;2022-08-19T14:35:31;4.68;;;1.40;;
55728;SDS011;41633;39.720;2.910;2022-08-19T14:38:01;5.97;;;1.55;;
55728;SDS011;41633;39.720;2.910;2022-08-19T14:40:28;6.07;;;1.40;;
55728;SDS011;41633;39.720;2.910;2022-08-19T14:42:56;6.10;;;1.48;;
55728;SDS011;41633;39.720;2.910;2022-08-19T14:45:25;8.15;;;1.67;;
55728;SDS011;41633;39.720;2.910;2022-08-19T14:47:51;4.10;;;1.02;;
55728;SDS011;41633;39.720;2.910;2022-08-19T14:50:18;4.35;;;1.10;;
55728;SDS011;41633;39.720;2.910;2022-08-19T14:52:47;6.18;;;0.93;;
55728;SDS011;41633;39.720;2.910;2022-08-19T14:55:17;7.82;;;1.23;;
55728;SDS011;41633;39.720;2.910;2022-08-19T14:57:43;4.68;;;1.10;;
55728;SDS011;41633;39.720;2.910;2022-08-19T15:00:10;6.80;;;1.20;;
55728;SDS011;41633;39.720;2.910;2022-08-19T15:02:38;5.57;;;1.10;;
55728;SDS011;41633;39.720;2.910;2022-08-19T15:05:04;7.07;;;2.08;;
55728;SDS011;41633;39.720;2.910;2022-08-19T15:07:30;5.95;;;1.30;;
55728;SDS011;41633;39.720;2.910;2022-08-19T15:09:56;5.65;;;1.08;;
55728;SDS011;41633;39.720;2.910;2022-08-19T15:12:23;7.43;;;1.45;;
55728;SDS011;41633;39.720;2.910;2022-08-19T15:14:49;5.22;;;1.20;;
55728;SDS011;41633;39.720;2.910;2022-08-19T15:17:16;5.45;;;1.10;;
55728;SDS011;41633;39.720;2.910;2022-08-19T15:19:42;6.97;;;1.20;;
55728;SDS011;41633;39.720;2.910;2022-08-19T15:22:08;9.00;;;2.00;;
55728;SDS011;41633;39.720;2.910;2022-08-19T15:24:34;6.05;;;1.50;;
55728;SDS011;41633;39.720;2.910;2022-08-19T15:27:03;8.13;;;1.40;;
55728;SDS011;41633;39.720;2.910;2022-08-19T15:29:30;4.20;;;1.13;;
55728;SDS011;41633;39.720;2.910;2022-08-19T15:31:57;5.88;;;1.35;;
55728;SDS011;41633;39.720;2.910;2022-08-19T15:34:24;6.13;;;1.33;;
55728;SDS011;41633;39.720;2.910;2022-08-19T15:36:53;5.68;;;1.50;;
55728;SDS011;41633;39.720;2.910;2022-08-19T15:39:19;6.70;;;1.50;;
55728;SDS011;41633;39.720;2.910;2022-08-19T15:41:45;5.57;;;1.33;;
55728;SDS011;41633;39.720;2.910;2022-08-19T15:44:13;5.80;;;1.25;;
55728;SDS011;41633;39.720;2.910;2022-08-19T15:46:40;5.95;;;1.27;;
55728;SDS011;41633;39.720;2.910;2022-08-19T15:49:07;6.00;;;1.08;;
55728;SDS011;41633;39.720;2.910;2022-08-19T15:51:34;4.78;;;0.85;;
55728;SDS011;41633;39.720;2.910;2022-08-19T15:54:04;5.00;;;1.05;;
55728;SDS011;41633;39.720;2.910;2022-08-19T15:56:30;6.03;;;0.88;;